createdAt,value
2022-11-27T00:00:28.244Z,4.75
2022-11-27T00:05:52.266Z,8.87
2022-11-27T00:11:17.148Z,6.63
2022-11-27T00:16:43.720Z,8.32
2022-11-27T00:22:07.907Z,6.43
2022-11-27T00:27:33.627Z,9.77
2022-11-27T00:32:54.737Z,7.02
2022-11-27T00:38:18.907Z,7.63
2022-11-27T00:43:45.809Z,5.51
2022-11-27T00:49:10.038Z,6.89
2022-11-27T00:54:37.352Z,6.34
2022-11-27T01:00:02.915Z,8.12
2022-11-27T01:05:28.624Z,6.08
2022-11-27T01:10:54.724Z,8.28
2022-11-27T01:16:17.892Z,9.51
2022-11-27T01:21:40.006Z,6.45
2022-11-27T01:27:04.898Z,5.68
2022-11-27T01:32:30.435Z,9.34
2022-11-27T01:37:53.254Z,6.75
2022-11-27T01:43:19.972Z,7.04
2022-11-27T01:48:53.914Z,8.51
2022-11-27T01:54:20.729Z,5.72
2022-11-27T01:59:45.459Z,8.67
2022-11-27T02:05:12.573Z,8.63
2022-11-27T02:10:34.723Z,7.17
2022-11-27T02:16:04.066Z,5.39
2022-11-27T02:21:31.618Z,4.70
2022-11-27T02:26:57.639Z,6.95
2022-11-27T02:32:44.217Z,5.78
2022-11-27T02:38:07.655Z,6.14
2022-11-27T02:43:31.114Z,5.50
2022-11-27T02:48:53.855Z,6.91
2022-11-27T02:54:16.023Z,3.80
2022-11-27T02:59:40.788Z,9.27
2022-11-27T03:05:05.237Z,5.64
2022-11-27T03:10:26.245Z,4.63
2022-11-27T03:15:51.924Z,8.41
2022-11-27T03:21:17.676Z,7.32
2022-11-27T03:26:43.604Z,7.15
2022-11-27T03:32:04.551Z,5.41
2022-11-27T03:37:30.277Z,5.55
2022-11-27T03:42:55.608Z,4.87
2022-11-27T03:48:21.245Z,5.69
2022-11-27T03:53:48.320Z,4.64
2022-11-27T03:59:13.509Z,4.94
2022-11-27T04:04:38.956Z,5.25
2022-11-27T04:10:03.137Z,7.51
2022-11-27T04:15:28.684Z,5.54
2022-11-27T04:20:54.323Z,4.88
2022-11-27T04:26:17.062Z,4.19
2022-11-27T04:31:40.072Z,6.68
2022-11-27T04:37:06.105Z,4.23
2022-11-27T04:42:29.245Z,4.70
2022-11-27T04:47:53.696Z,4.65
2022-11-27T04:53:17.779Z,6.87
2022-11-27T04:58:44.347Z,4.26
2022-11-27T05:04:11.609Z,7.17
2022-11-27T05:09:33.785Z,5.20
2022-11-27T05:15:03.026Z,7.65
2022-11-27T05:20:24.459Z,5.00
2022-11-27T05:25:50.395Z,5.79
2022-11-27T05:31:14.930Z,4.93
2022-11-27T05:36:39.009Z,6.43
2022-11-27T05:42:05.441Z,6.04
2022-11-27T05:47:31.757Z,6.68
2022-11-27T05:52:55.008Z,8.87
2022-11-27T05:58:22.341Z,7.19
2022-11-27T06:03:49.028Z,9.66
2022-11-27T06:09:13.364Z,7.00
2022-11-27T06:14:36.616Z,8.62
2022-11-27T06:20:02.587Z,6.70
2022-11-27T06:25:28.512Z,7.60
2022-11-27T06:30:52.186Z,6.33
2022-11-27T06:36:16.818Z,5.96
2022-11-27T06:41:39.832Z,6.72
2022-11-27T06:47:02.673Z,9.93
2022-11-27T06:52:23.619Z,6.73
2022-11-27T06:57:45.915Z,8.43
2022-11-27T07:03:11.493Z,8.94
2022-11-27T07:08:33.513Z,7.54
2022-11-27T07:13:58.114Z,6.88
2022-11-27T07:19:22.371Z,10.11
2022-11-27T07:24:48.955Z,12.87
2022-11-27T07:30:15.102Z,11.62
2022-11-27T07:35:41.151Z,11.73
2022-11-27T07:41:07.142Z,10.68
2022-11-27T07:46:32.676Z,12.62
2022-11-27T07:51:59.153Z,13.55
2022-11-27T07:57:22.600Z,14.19
2022-11-27T08:02:45.986Z,13.72
2022-11-27T08:08:12.599Z,13.63
2022-11-27T08:13:37.030Z,12.90
2022-11-27T08:19:03.124Z,14.38
2022-11-27T08:24:29.250Z,12.94
2022-11-27T08:29:52.341Z,17.48
2022-11-27T08:35:17.336Z,12.28
2022-11-27T08:40:44.394Z,11.24
2022-11-27T08:46:15.579Z,13.50
2022-11-27T08:51:40.331Z,13.31
2022-11-27T08:57:06.746Z,13.87
2022-11-27T09:02:28.813Z,15.69
2022-11-27T09:07:51.732Z,14.24
2022-11-27T09:13:18.612Z,15.40
2022-11-27T09:18:44.580Z,14.35
2022-11-27T09:24:09.016Z,11.58
2022-11-27T09:29:31.962Z,12.56
2022-11-27T09:34:55.377Z,14.45
2022-11-27T09:40:20.310Z,13.08
2022-11-27T09:45:42.471Z,15.71
2022-11-27T09:51:08.114Z,18.21
2022-11-27T09:56:31.391Z,16.21
2022-11-27T10:01:56.483Z,16.15
2022-11-27T10:07:23.985Z,15.30
2022-11-27T10:12:53.215Z,15.79
2022-11-27T10:18:14.828Z,16.92
2022-11-27T10:23:40.400Z,14.65
2022-11-27T10:29:08.528Z,15.88
2022-11-27T10:34:33.263Z,12.81
2022-11-27T10:39:56.882Z,14.79
2022-11-27T10:45:22.799Z,21.27
2022-11-27T10:50:48.502Z,17.83
2022-11-27T10:56:10.581Z,15.74
2022-11-27T11:02:04.805Z,18.74
2022-11-27T11:07:43.334Z,18.47
2022-11-27T11:13:11.917Z,18.90
2022-11-27T11:18:37.997Z,17.59
2022-11-27T11:24:00.543Z,16.99
2022-11-27T11:29:30.281Z,20.26
2022-11-27T11:34:59.239Z,22.40
2022-11-27T11:40:21.735Z,16.64
2022-11-27T11:45:45.646Z,16.69
2022-11-27T11:51:10.522Z,15.98
2022-11-27T11:56:33.198Z,17.52
2022-11-27T12:01:59.527Z,13.56
2022-11-27T12:07:33.459Z,15.47
2022-11-27T12:13:06.324Z,15.32
2022-11-27T12:18:32.101Z,13.20
2022-11-27T12:24:01.019Z,15.22
2022-11-27T12:29:32.216Z,14.90
2022-11-27T12:35:04.930Z,15.91
2022-11-27T12:40:47.019Z,14.48
2022-11-27T12:46:20.250Z,13.50
2022-11-27T12:51:46.523Z,13.56
2022-11-27T12:57:14.785Z,13.58
2022-11-27T13:02:36.685Z,12.90
2022-11-27T13:08:05.468Z,13.79
2022-11-27T13:13:28.260Z,11.64
2022-11-27T13:18:54.771Z,11.13
2022-11-27T13:24:19.041Z,13.57
2022-11-27T13:29:42.573Z,14.11
2022-11-27T13:35:09.012Z,12.58
2022-11-27T13:40:36.367Z,13.38
2022-11-27T13:46:04.659Z,13.24
2022-11-27T13:51:31.335Z,14.41
2022-11-27T13:56:56.372Z,12.29
2022-11-27T14:02:30.713Z,15.59
2022-11-27T14:08:06.267Z,14.66
2022-11-27T14:13:42.145Z,15.63
2022-11-27T14:20:05.232Z,14.41
2022-11-27T14:25:46.510Z,14.05
2022-11-27T14:31:08.222Z,14.30
2022-11-27T14:36:38.643Z,13.65
2022-11-27T14:42:05.407Z,11.98
2022-11-27T14:47:35.226Z,11.73
2022-11-27T14:53:01.286Z,14.76
2022-11-27T14:58:29.019Z,10.89
2022-11-27T15:03:52.238Z,11.05
2022-11-27T15:09:31.451Z,12.83
2022-11-27T15:14:42.391Z,13.40
2022-11-27T15:20:04.024Z,12.26
2022-11-27T15:25:29.035Z,11.97
2022-11-27T15:30:53.281Z,13.24
2022-11-27T15:36:16.182Z,18.80
2022-11-27T15:41:43.381Z,17.69
2022-11-27T15:47:09.102Z,15.18
2022-11-27T15:52:40.523Z,14.52
2022-11-27T15:58:07.940Z,15.26
2022-11-27T16:03:38.702Z,16.27
2022-11-27T16:09:03.151Z,17.17
2022-11-27T16:14:27.024Z,17.51
2022-11-27T16:19:50.734Z,17.15
2022-11-27T16:25:17.574Z,15.43
2022-11-27T16:30:40.696Z,13.41
2022-11-27T16:36:05.966Z,11.84
2022-11-27T16:41:29.770Z,11.70
2022-11-27T16:46:52.778Z,12.18
2022-11-27T16:52:16.355Z,13.34
2022-11-27T16:57:41.703Z,12.82
2022-11-27T17:03:08.097Z,15.49
2022-11-27T17:08:32.652Z,13.08
2022-11-27T17:13:58.262Z,16.75
2022-11-27T17:19:21.087Z,16.06
2022-11-27T17:24:44.579Z,16.39
2022-11-27T17:30:11.651Z,15.60
2022-11-27T17:35:34.832Z,17.04
2022-11-27T17:41:00.525Z,19.86
2022-11-27T17:46:24.058Z,18.68
2022-11-27T17:51:46.588Z,14.37
2022-11-27T17:57:13.874Z,14.45
2022-11-27T18:02:36.441Z,15.44
2022-11-27T18:08:02.514Z,15.34
2022-11-27T18:13:28.588Z,14.32
2022-11-27T18:18:52.110Z,16.33
2022-11-27T18:24:24.007Z,15.50
2022-11-27T18:29:44.756Z,17.17
2022-11-27T18:35:09.999Z,18.64
2022-11-27T18:40:34.352Z,18.51
2022-11-27T18:45:58.033Z,15.26
2022-11-27T18:51:21.569Z,15.81
2022-11-27T18:56:46.025Z,14.95
2022-11-27T19:02:11.433Z,17.00
2022-11-27T19:07:35.785Z,14.13
2022-11-27T19:12:56.982Z,13.37
2022-11-27T19:18:18.165Z,12.86
2022-11-27T19:24:41.739Z,15.50
2022-11-27T19:30:02.387Z,14.71
2022-11-27T19:40:51.751Z,13.20
2022-11-27T19:46:16.445Z,15.97
2022-11-27T19:51:39.610Z,14.69
2022-11-27T19:57:06.564Z,12.85
2022-11-27T20:02:29.622Z,14.88
2022-11-27T20:07:51.923Z,13.95
2022-11-27T20:13:14.362Z,16.26
2022-11-27T20:18:41.698Z,12.56
2022-11-27T20:24:05.247Z,14.84
2022-11-27T20:29:31.234Z,14.10
2022-11-27T20:34:54.969Z,16.51
2022-11-27T20:40:17.410Z,14.45
2022-11-27T20:45:41.169Z,15.99
2022-11-27T20:51:08.283Z,14.03
2022-11-27T20:57:29.229Z,21.66
2022-11-27T21:02:50.243Z,16.76
2022-11-27T21:08:15.728Z,15.01
2022-11-27T21:13:41.391Z,16.14
2022-11-27T21:19:04.808Z,14.36
2022-11-27T21:24:28.429Z,14.57
2022-11-27T21:29:54.313Z,14.56
2022-11-27T21:35:17.705Z,15.16
2022-11-27T21:40:45.361Z,14.31
2022-11-27T21:46:11.639Z,14.24
2022-11-27T21:51:35.716Z,14.03
2022-11-27T21:57:05.132Z,13.63
2022-11-27T22:02:32.302Z,13.74
2022-11-27T22:07:56.466Z,12.35
2022-11-27T22:13:22.447Z,13.56
2022-11-27T22:18:48.579Z,17.47
2022-11-27T22:24:18.449Z,14.18
2022-11-27T22:29:39.645Z,13.64
2022-11-27T22:35:06.666Z,13.62
2022-11-27T22:40:32.953Z,13.06
2022-11-27T22:45:56.258Z,13.10
2022-11-27T22:51:23.632Z,13.71
2022-11-27T22:56:47.800Z,13.13
2022-11-27T23:02:15.087Z,14.61
2022-11-27T23:07:38.784Z,13.39
2022-11-27T23:13:04.302Z,14.16
2022-11-27T23:18:29.982Z,13.79
2022-11-27T23:23:52.311Z,13.92
2022-11-27T23:29:15.749Z,13.98
2022-11-27T23:34:38.858Z,13.65
2022-11-27T23:40:05.215Z,16.13
2022-11-27T23:45:29.903Z,16.82
2022-11-27T23:50:56.888Z,13.72
2022-11-27T23:56:22.782Z,15.23
